Terminal Aerodrome Forecast
Issued by NWS

Home | Current Version | Previous Version | Text Only | Print | Product List | Glossary Off
Versions: 1 2 3 4 5 6 7 8 9 10 11 12 13 14 15 16 17 18 19 20 21 22

144
FTUS43 KMPX 220915 AAA
TAFRWF
TAF AMD
KRWF 220915Z 2209/2306 VRB02KT 1/4SM FG VV001
      TEMPO 2209/2213 1SM BR OVC003
     FM221300 00000KT 1SM BR BKN003
     FM221400 00000KT 4SM BR BKN008
     FM221500 13005KT P6SM SCT015=

USA.gov is the U.S. government's official web portal to all federal, state and local government web resources and services.